Time;durP1;ratioP1;P1;durP2;ratioP2;P2;SDS_P1;SDS_P2;PMS_P1;PMS_P2;Temp;Humidity;BMP_temperature;BMP_pressure;BME280_temperature;BME280_humidity;BME280_pressure;Samples;Min_cycle;Max_cycle;Signal;HPM_P1;HPM_P2
2023/07/09 02:27:58;;;;;;;;;;;;;;;;;;;;;
2023/07/09 03:28:10;;;;;;;;;;;;;;;;;;;;;
2023/07/09 04:00:48;;;;;;;;;;;;;;;;;;;;;
2023/07/09 04:47:35;;;;;;;8.18;3.80;;;;;;;;;;6150765;23;20009;-77
2023/07/09 04:50:39;;;;;;;6.90;3.47;;;;;;;;;;6150340;23;20017;-77
2023/07/09 04:53:30;;;;;;;12.10;3.42;;;;;;;;;;6060662;23;20099;-77
2023/07/09 04:56:32;;;;;;;;;;;;;;;;;;;;;
2023/07/09 15:04:15;;;;;;;10.95;3.08;;;;;;;;;;6192432;23;20024;-78
2023/07/09 15:28:19;;;;;;;8.00;3.70;;;;;;;;;;6151958;23;20046;-78
2023/07/09 15:41:17;;;;;;;12.27;3.38;;;;;;;;;;6180144;23;20029;-82
2023/07/09 15:43:48;;;;;;;6.93;3.20;;;;;;;;;;6180721;23;20071;-81
2023/07/09 16:07:57;;;;;;;7.38;3.58;;;;;;;;;;6154805;23;20092;-84
2023/07/09 16:10:24;;;;;;;6.57;3.38;;;;;;;;;;6181805;23;20009;-85
2023/07/09 16:12:50;;;;;;;12.55;3.70;;;;;;;;;;6178829;23;20043;-77
2023/07/09 16:15:18;;;;;;;17.60;4.35;;;;;;;;;;6180873;23;20033;-78
2023/07/09 16:17:45;;;;;;;12.40;3.20;;;;;;;;;;6178748;23;20013;-77
2023/07/09 16:20:12;;;;;;;9.65;3.47;;;;;;;;;;6163102;23;20049;-76
2023/07/09 16:22:39;;;;;;;9.10;3.47;;;;;;;;;;6149601;23;20009;-77
2023/07/09 16:44:00;;;;;;;9.43;3.10;;;;;;;;;;6171952;23;20040;-77
2023/07/09 16:46:26;;;;;;;11.25;3.13;;;;;;;;;;6179122;23;20524;-76
2023/07/09 16:48:59;;;;;;;11.23;3.67;;;;;;;;;;6179031;23;20108;-77
2023/07/09 16:51:25;;;;;;;10.43;3.80;;;;;;;;;;6177808;23;20440;-76
2023/07/09 16:56:43;;;;;;;11.65;4.18;;;;;;;;;;6118348;23;20045;-78
2023/07/09 16:59:12;;;;;;;10.38;3.25;;;;;;;;;;6197947;23;20080;-78
2023/07/09 17:01:39;;;;;;;13.40;4.00;;;;;;;;;;6211063;23;20016;-78
2023/07/09 17:09:12;;;;;;;10.23;3.40;;;;;;;;;;6166614;23;20087;-79
2023/07/09 17:12:14;;;;;;;10.40;5.03;;;;;;;;;;6154944;23;20004;-78
2023/07/09 17:14:49;;;;;;;;;;;;;;;;;;6008644;23;20023;-78
2023/07/09 17:17:16;;;;;;;12.60;4.88;;;;;;;;;;6158055;23;19904;-79
2023/07/09 17:19:42;;;;;;;13.00;3.97;;;;;;;;;;6153725;23;20013;-79
2023/07/09 17:22:32;;;;;;;14.18;3.78;;;;;;;;;;6154690;23;20021;-78
2023/07/09 17:24:58;;;;;;;13.32;4.38;;;;;;;;;;6112617;23;20704;-79
2023/07/09 17:30:23;;;;;;;11.38;4.43;;;;;;;;;;6168866;23;20020;-78
2023/07/09 17:35:35;;;;;;;9.65;3.70;;;;;;;;;;6177220;23;20029;-76
2023/07/09 17:38:03;;;;;;;10.40;3.47;;;;;;;;;;6180472;23;20012;-76
2023/07/09 17:40:43;;;;;;;10.07;3.97;;;;;;;;;;6178764;23;20013;-76
2023/07/09 17:43:17;;;;;;;12.90;3.45;;;;;;;;;;6177578;23;20009;-77
2023/07/09 17:45:43;;;;;;;8.82;4.07;;;;;;;;;;6180915;23;20020;-77
2023/07/09 17:48:16;;;;;;;10.65;3.80;;;;;;;;;;6179855;23;19997;-76
2023/07/09 17:50:45;;;;;;;9.70;3.72;;;;;;;;;;6178580;23;20027;-76
2023/07/09 17:53:16;;;;;;;11.77;3.50;;;;;;;;;;6179762;23;20009;-79
2023/07/09 17:55:42;;;;;;;9.73;4.30;;;;;;;;;;6178981;23;20304;-78
2023/07/09 17:58:11;;;;;;;12.73;4.00;;;;;;;;;;6178636;23;20051;-79
2023/07/09 18:00:37;;;;;;;9.57;4.30;;;;;;;;;;6178499;23;20017;-78
2023/07/09 18:03:08;;;;;;;12.68;4.00;;;;;;;;;;6178083;23;20337;-78
2023/07/09 18:18:25;;;;;;;8.93;4.57;;;;;;;;;;6157062;23;20044;-83
2023/07/09 18:20:51;;;;;;;11.32;5.40;;;;;;;;;;6180723;23;20009;-84
2023/07/09 18:23:18;;;;;;;15.20;5.50;;;;;;;;;;6181042;23;20016;-82
2023/07/09 18:25:45;;;;;;;13.77;5.25;;;;;;;;;;6181170;23;20032;-85
2023/07/09 18:28:29;;;;;;;20.40;5.18;;;;;;;;;;6181567;23;20360;-81
2023/07/09 18:30:55;;;;;;;12.50;4.85;;;;;;;;;;6181254;23;20005;-84
2023/07/09 18:33:21;;;;;;;11.02;4.82;;;;;;;;;;6181618;23;20715;-85
2023/07/09 18:35:47;;;;;;;10.90;3.88;;;;;;;;;;6180060;23;20057;-85
2023/07/09 18:38:13;;;;;;;11.45;4.13;;;;;;;;;;6183163;23;20420;-85
2023/07/09 18:40:43;;;;;;;15.40;4.65;;;;;;;;;;6181145;23;20044;-80
2023/07/09 18:43:19;;;;;;;12.25;4.15;;;;;;;;;;6180461;23;20104;-82
2023/07/09 18:45:46;;;;;;;10.63;3.97;;;;;;;;;;6181256;23;20036;-82
2023/07/09 18:48:14;;;;;;;18.25;4.40;;;;;;;;;;6181173;23;20048;-82
2023/07/09 18:50:40;;;;;;;10.95;4.25;;;;;;;;;;6180546;23;20325;-83
2023/07/09 18:53:10;;;;;;;9.75;4.32;;;;;;;;;;6182882;23;20024;-82
2023/07/09 18:55:36;;;;;;;14.45;4.03;;;;;;;;;;6182920;23;20005;-79
2023/07/09 18:58:02;;;;;;;11.70;4.00;;;;;;;;;;6180907;23;20087;-82
2023/07/09 19:00:29;;;;;;;11.20;4.05;;;;;;;;;;6182731;23;20008;-86
2023/07/09 19:02:55;;;;;;;11.05;4.32;;;;;;;;;;6180316;23;20039;-78
2023/07/09 19:05:23;;;;;;;14.18;5.72;;;;;;;;;;6180575;23;20005;-77
2023/07/09 19:07:50;;;;;;;13.02;6.03;;;;;;;;;;6180753;23;20060;-78
2023/07/09 19:10:24;;;;;;;13.95;4.80;;;;;;;;;;6180713;23;20005;-85
2023/07/09 19:12:52;;;;;;;10.68;5.22;;;;;;;;;;6181653;23;20066;-80
2023/07/09 19:15:18;;;;;;;11.95;4.65;;;;;;;;;;6183181;23;20005;-82
2023/07/09 19:17:45;;;;;;;11.80;4.72;;;;;;;;;;6183166;23;20471;-84
2023/07/09 19:20:23;;;;;;;14.23;5.43;;;;;;;;;;6180365;23;20068;-79
2023/07/09 19:22:50;;;;;;;12.63;4.50;;;;;;;;;;6180466;23;20021;-79
2023/07/09 19:25:17;;;;;;;11.70;4.20;;;;;;;;;;6180854;23;20013;-79
2023/07/09 19:27:43;;;;;;;10.25;3.75;;;;;;;;;;6181268;23;20410;-84
2023/07/09 19:32:56;;;;;;;12.25;4.43;;;;;;;;;;6139973;23;20033;-78
